sensor_id;sensor_type;location;lat;lon;timestamp;P1;durP1;ratioP1;P2;durP2;ratioP2
72676;SDS011;60755;51.374;10.662;2023-04-15T00:02:12;5.70;;;5.20;;
72676;SDS011;60755;51.374;10.662;2023-04-15T00:04:40;5.40;;;4.90;;
72676;SDS011;60755;51.374;10.662;2023-04-15T00:07:07;5.10;;;4.60;;
72676;SDS011;60755;51.374;10.662;2023-04-15T00:09:35;6.17;;;5.03;;
72676;SDS011;60755;51.374;10.662;2023-04-15T00:12:03;4.87;;;4.47;;
72676;SDS011;60755;51.374;10.662;2023-04-15T00:14:31;4.93;;;4.53;;
72676;SDS011;60755;51.374;10.662;2023-04-15T00:17:00;5.87;;;4.60;;
72676;SDS011;60755;51.374;10.662;2023-04-15T00:19:27;5.27;;;4.83;;
72676;SDS011;60755;51.374;10.662;2023-04-15T00:21:54;5.27;;;4.80;;
72676;SDS011;60755;51.374;10.662;2023-04-15T00:24:21;5.87;;;4.90;;
72676;SDS011;60755;51.374;10.662;2023-04-15T00:26:50;6.37;;;5.37;;
72676;SDS011;60755;51.374;10.662;2023-04-15T00:29:17;5.90;;;5.40;;
72676;SDS011;60755;51.374;10.662;2023-04-15T00:31:44;5.53;;;5.03;;
72676;SDS011;60755;51.374;10.662;2023-04-15T00:34:11;8.20;;;5.10;;
72676;SDS011;60755;51.374;10.662;2023-04-15T00:36:38;5.90;;;5.40;;
72676;SDS011;60755;51.374;10.662;2023-04-15T00:39:06;8.47;;;5.80;;
72676;SDS011;60755;51.374;10.662;2023-04-15T00:41:33;5.67;;;5.17;;
72676;SDS011;60755;51.374;10.662;2023-04-15T00:44:05;8.63;;;5.47;;
72676;SDS011;60755;51.374;10.662;2023-04-15T00:46:33;7.37;;;5.97;;
72676;SDS011;60755;51.374;10.662;2023-04-15T00:49:03;6.17;;;5.57;;
72676;SDS011;60755;51.374;10.662;2023-04-15T00:51:32;6.70;;;6.07;;
72676;SDS011;60755;51.374;10.662;2023-04-15T00:54:01;6.73;;;5.80;;
72676;SDS011;60755;51.374;10.662;2023-04-15T00:56:29;6.37;;;5.73;;
72676;SDS011;60755;51.374;10.662;2023-04-15T00:58:57;6.70;;;6.00;;
72676;SDS011;60755;51.374;10.662;2023-04-15T01:01:26;7.30;;;6.20;;
72676;SDS011;60755;51.374;10.662;2023-04-15T01:03:55;8.20;;;6.53;;
72676;SDS011;60755;51.374;10.662;2023-04-15T01:06:23;6.43;;;5.80;;
72676;SDS011;60755;51.374;10.662;2023-04-15T01:08:52;7.57;;;6.30;;
72676;SDS011;60755;51.374;10.662;2023-04-15T01:11:19;7.27;;;6.50;;
72676;SDS011;60755;51.374;10.662;2023-04-15T01:13:48;7.13;;;6.43;;
72676;SDS011;60755;51.374;10.662;2023-04-15T01:16:17;9.87;;;6.40;;
72676;SDS011;60755;51.374;10.662;2023-04-15T01:18:46;8.87;;;7.00;;
72676;SDS011;60755;51.374;10.662;2023-04-15T01:21:13;9.07;;;6.87;;
72676;SDS011;60755;51.374;10.662;2023-04-15T01:23:40;8.83;;;7.27;;
72676;SDS011;60755;51.374;10.662;2023-04-15T01:26:11;7.77;;;6.73;;
72676;SDS011;60755;51.374;10.662;2023-04-15T01:28:39;9.07;;;6.87;;
72676;SDS011;60755;51.374;10.662;2023-04-15T01:31:07;9.50;;;7.87;;
72676;SDS011;60755;51.374;10.662;2023-04-15T01:33:36;11.30;;;7.90;;
72676;SDS011;60755;51.374;10.662;2023-04-15T01:36:04;10.50;;;7.77;;
72676;SDS011;60755;51.374;10.662;2023-04-15T01:38:33;10.07;;;7.50;;
72676;SDS011;60755;51.374;10.662;2023-04-15T01:41:00;10.50;;;8.17;;
72676;SDS011;60755;51.374;10.662;2023-04-15T01:43:30;11.80;;;9.57;;
72676;SDS011;60755;51.374;10.662;2023-04-15T01:45:57;10.47;;;9.07;;
72676;SDS011;60755;51.374;10.662;2023-04-15T01:48:25;11.90;;;9.53;;
72676;SDS011;60755;51.374;10.662;2023-04-15T01:50:53;12.20;;;9.77;;
72676;SDS011;60755;51.374;10.662;2023-04-15T01:53:23;14.23;;;10.17;;
72676;SDS011;60755;51.374;10.662;2023-04-15T01:55:51;13.50;;;10.20;;
72676;SDS011;60755;51.374;10.662;2023-04-15T01:58:18;18.27;;;10.10;;
72676;SDS011;60755;51.374;10.662;2023-04-15T02:00:48;16.30;;;11.63;;
72676;SDS011;60755;51.374;10.662;2023-04-15T02:03:16;16.80;;;11.97;;
72676;SDS011;60755;51.374;10.662;2023-04-15T02:05:43;16.77;;;11.63;;
72676;SDS011;60755;51.374;10.662;2023-04-15T02:08:11;18.43;;;12.40;;
72676;SDS011;60755;51.374;10.662;2023-04-15T02:10:38;17.87;;;11.97;;
72676;SDS011;60755;51.374;10.662;2023-04-15T02:13:05;17.27;;;12.30;;
72676;SDS011;60755;51.374;10.662;2023-04-15T02:15:32;18.30;;;12.63;;
72676;SDS011;60755;51.374;10.662;2023-04-15T02:18:01;19.63;;;13.53;;
72676;SDS011;60755;51.374;10.662;2023-04-15T02:20:28;18.97;;;13.63;;
72676;SDS011;60755;51.374;10.662;2023-04-15T02:22:57;23.93;;;15.40;;
72676;SDS011;60755;51.374;10.662;2023-04-15T02:25:24;22.77;;;14.03;;
72676;SDS011;60755;51.374;10.662;2023-04-15T02:27:51;25.27;;;16.17;;
72676;SDS011;60755;51.374;10.662;2023-04-15T02:30:20;24.93;;;15.87;;
72676;SDS011;60755;51.374;10.662;2023-04-15T02:32:48;24.37;;;15.77;;
72676;SDS011;60755;51.374;10.662;2023-04-15T02:35:17;25.57;;;17.50;;
72676;SDS011;60755;51.374;10.662;2023-04-15T02:37:44;30.90;;;18.30;;
72676;SDS011;60755;51.374;10.662;2023-04-15T02:40:12;26.27;;;16.90;;
72676;SDS011;60755;51.374;10.662;2023-04-15T02:42:39;27.17;;;16.93;;
72676;SDS011;60755;51.374;10.662;2023-04-15T02:45:11;31.63;;;18.50;;
72676;SDS011;60755;51.374;10.662;2023-04-15T02:47:39;29.77;;;18.67;;
72676;SDS011;60755;51.374;10.662;2023-04-15T02:50:10;28.43;;;18.10;;
72676;SDS011;60755;51.374;10.662;2023-04-15T02:52:41;29.20;;;18.60;;
72676;SDS011;60755;51.374;10.662;2023-04-15T02:55:09;30.67;;;18.27;;
72676;SDS011;60755;51.374;10.662;2023-04-15T02:57:37;29.30;;;19.20;;
72676;SDS011;60755;51.374;10.662;2023-04-15T03:00:08;30.00;;;18.70;;
72676;SDS011;60755;51.374;10.662;2023-04-15T03:02:39;29.43;;;18.73;;
72676;SDS011;60755;51.374;10.662;2023-04-15T03:05:10;31.27;;;19.33;;
72676;SDS011;60755;51.374;10.662;2023-04-15T03:07:41;32.90;;;19.30;;
72676;SDS011;60755;51.374;10.662;2023-04-15T03:10:10;32.03;;;18.73;;
72676;SDS011;60755;51.374;10.662;2023-04-15T03:12:37;31.43;;;19.53;;
72676;SDS011;60755;51.374;10.662;2023-04-15T03:15:06;31.00;;;19.60;;
72676;SDS011;60755;51.374;10.662;2023-04-15T03:17:37;30.50;;;17.67;;
72676;SDS011;60755;51.374;10.662;2023-04-15T03:20:05;30.33;;;18.23;;
72676;SDS011;60755;51.374;10.662;2023-04-15T03:22:33;30.33;;;19.17;;
72676;SDS011;60755;51.374;10.662;2023-04-15T03:25:03;29.13;;;18.07;;
72676;SDS011;60755;51.374;10.662;2023-04-15T03:27:32;29.30;;;18.53;;
72676;SDS011;60755;51.374;10.662;2023-04-15T03:30:01;31.53;;;18.97;;
72676;SDS011;60755;51.374;10.662;2023-04-15T03:32:32;29.80;;;18.37;;
72676;SDS011;60755;51.374;10.662;2023-04-15T03:34:59;27.53;;;17.33;;
72676;SDS011;60755;51.374;10.662;2023-04-15T03:37:26;30.60;;;19.10;;
72676;SDS011;60755;51.374;10.662;2023-04-15T03:39:53;29.40;;;17.87;;
72676;SDS011;60755;51.374;10.662;2023-04-15T03:42:22;30.73;;;18.77;;
72676;SDS011;60755;51.374;10.662;2023-04-15T03:44:49;28.77;;;18.40;;
72676;SDS011;60755;51.374;10.662;2023-04-15T03:47:17;26.73;;;16.87;;
72676;SDS011;60755;51.374;10.662;2023-04-15T03:49:44;24.60;;;17.03;;
72676;SDS011;60755;51.374;10.662;2023-04-15T03:52:11;22.50;;;15.73;;
72676;SDS011;60755;51.374;10.662;2023-04-15T03:54:38;23.60;;;15.87;;
72676;SDS011;60755;51.374;10.662;2023-04-15T03:57:06;21.23;;;14.40;;
72676;SDS011;60755;51.374;10.662;2023-04-15T03:59:34;20.83;;;14.20;;
72676;SDS011;60755;51.374;10.662;2023-04-15T04:02:01;19.70;;;13.10;;
72676;SDS011;60755;51.374;10.662;2023-04-15T04:04:28;16.77;;;12.63;;
72676;SDS011;60755;51.374;10.662;2023-04-15T04:06:56;18.83;;;12.83;;
72676;SDS011;60755;51.374;10.662;2023-04-15T04:09:23;16.80;;;12.40;;
72676;SDS011;60755;51.374;10.662;2023-04-15T04:11:50;16.60;;;11.93;;
72676;SDS011;60755;51.374;10.662;2023-04-15T04:14:17;15.73;;;11.07;;
72676;SDS011;60755;51.374;10.662;2023-04-15T04:16:46;15.13;;;11.43;;
72676;SDS011;60755;51.374;10.662;2023-04-15T04:19:13;15.93;;;11.30;;
72676;SDS011;60755;51.374;10.662;2023-04-15T04:21:44;15.37;;;11.67;;
72676;SDS011;60755;51.374;10.662;2023-04-15T04:24:11;13.30;;;10.10;;
72676;SDS011;60755;51.374;10.662;2023-04-15T04:26:38;16.03;;;10.97;;
72676;SDS011;60755;51.374;10.662;2023-04-15T04:29:05;15.20;;;10.93;;
72676;SDS011;60755;51.374;10.662;2023-04-15T04:31:33;16.33;;;12.50;;
72676;SDS011;60755;51.374;10.662;2023-04-15T04:34:01;16.67;;;12.03;;
72676;SDS011;60755;51.374;10.662;2023-04-15T04:36:29;16.87;;;11.93;;
72676;SDS011;60755;51.374;10.662;2023-04-15T04:38:56;13.47;;;10.37;;
72676;SDS011;60755;51.374;10.662;2023-04-15T04:41:23;14.47;;;10.83;;
72676;SDS011;60755;51.374;10.662;2023-04-15T04:43:50;13.13;;;10.00;;
72676;SDS011;60755;51.374;10.662;2023-04-15T04:46:18;14.33;;;10.13;;
72676;SDS011;60755;51.374;10.662;2023-04-15T04:48:45;12.83;;;9.50;;
72676;SDS011;60755;51.374;10.662;2023-04-15T04:51:13;12.33;;;9.33;;
72676;SDS011;60755;51.374;10.662;2023-04-15T04:53:41;13.43;;;9.73;;
72676;SDS011;60755;51.374;10.662;2023-04-15T04:56:08;13.50;;;10.20;;
72676;SDS011;60755;51.374;10.662;2023-04-15T04:58:35;13.23;;;9.30;;
72676;SDS011;60755;51.374;10.662;2023-04-15T05:01:03;12.27;;;9.50;;
72676;SDS011;60755;51.374;10.662;2023-04-15T05:03:30;14.07;;;9.77;;
72676;SDS011;60755;51.374;10.662;2023-04-15T05:05:57;14.03;;;9.30;;
72676;SDS011;60755;51.374;10.662;2023-04-15T05:08:26;14.00;;;9.57;;
72676;SDS011;60755;51.374;10.662;2023-04-15T05:10:53;12.40;;;8.83;;
72676;SDS011;60755;51.374;10.662;2023-04-15T05:13:21;13.47;;;9.83;;
72676;SDS011;60755;51.374;10.662;2023-04-15T05:15:48;14.37;;;9.60;;
72676;SDS011;60755;51.374;10.662;2023-04-15T05:18:15;14.77;;;10.10;;
72676;SDS011;60755;51.374;10.662;2023-04-15T05:20:43;13.17;;;9.53;;
72676;SDS011;60755;51.374;10.662;2023-04-15T05:23:10;13.00;;;9.73;;
72676;SDS011;60755;51.374;10.662;2023-04-15T05:25:39;13.67;;;9.03;;
72676;SDS011;60755;51.374;10.662;2023-04-15T05:28:06;18.17;;;10.47;;
72676;SDS011;60755;51.374;10.662;2023-04-15T05:30:33;10.93;;;7.87;;
72676;SDS011;60755;51.374;10.662;2023-04-15T05:33:01;11.37;;;8.03;;
72676;SDS011;60755;51.374;10.662;2023-04-15T05:35:28;11.13;;;8.67;;
72676;SDS011;60755;51.374;10.662;2023-04-15T05:37:55;12.37;;;7.70;;
72676;SDS011;60755;51.374;10.662;2023-04-15T05:40:23;11.63;;;7.73;;
72676;SDS011;60755;51.374;10.662;2023-04-15T05:42:52;12.50;;;8.43;;
72676;SDS011;60755;51.374;10.662;2023-04-15T05:45:19;15.57;;;8.53;;
72676;SDS011;60755;51.374;10.662;2023-04-15T05:47:46;13.50;;;9.00;;
72676;SDS011;60755;51.374;10.662;2023-04-15T05:50:15;14.97;;;8.23;;
72676;SDS011;60755;51.374;10.662;2023-04-15T05:52:42;12.77;;;7.63;;
72676;SDS011;60755;51.374;10.662;2023-04-15T05:55:10;14.53;;;8.87;;
72676;SDS011;60755;51.374;10.662;2023-04-15T05:57:38;9.13;;;6.90;;
72676;SDS011;60755;51.374;10.662;2023-04-15T06:00:08;9.63;;;6.87;;
72676;SDS011;60755;51.374;10.662;2023-04-15T06:02:36;9.10;;;6.70;;
72676;SDS011;60755;51.374;10.662;2023-04-15T06:05:03;9.37;;;6.53;;
72676;SDS011;60755;51.374;10.662;2023-04-15T06:07:34;8.97;;;6.63;;
72676;SDS011;60755;51.374;10.662;2023-04-15T06:10:02;9.13;;;6.47;;
72676;SDS011;60755;51.374;10.662;2023-04-15T06:12:30;9.03;;;6.20;;
72676;SDS011;60755;51.374;10.662;2023-04-15T06:14:57;7.50;;;5.60;;
72676;SDS011;60755;51.374;10.662;2023-04-15T06:17:26;6.83;;;5.50;;
72676;SDS011;60755;51.374;10.662;2023-04-15T06:19:53;8.60;;;6.10;;
72676;SDS011;60755;51.374;10.662;2023-04-15T06:22:21;6.63;;;5.03;;
72676;SDS011;60755;51.374;10.662;2023-04-15T06:24:48;7.53;;;5.60;;
72676;SDS011;60755;51.374;10.662;2023-04-15T06:27:16;6.30;;;5.10;;
72676;SDS011;60755;51.374;10.662;2023-04-15T06:29:43;6.27;;;5.10;;
72676;SDS011;60755;51.374;10.662;2023-04-15T06:32:11;6.87;;;5.50;;
72676;SDS011;60755;51.374;10.662;2023-04-15T06:34:40;8.27;;;6.00;;
72676;SDS011;60755;51.374;10.662;2023-04-15T06:37:07;6.70;;;5.20;;
72676;SDS011;60755;51.374;10.662;2023-04-15T06:39:35;5.23;;;4.50;;
72676;SDS011;60755;51.374;10.662;2023-04-15T06:42:03;6.47;;;4.97;;
72676;SDS011;60755;51.374;10.662;2023-04-15T06:44:30;6.67;;;5.10;;
72676;SDS011;60755;51.374;10.662;2023-04-15T06:46:57;5.10;;;4.60;;
72676;SDS011;60755;51.374;10.662;2023-04-15T06:49:25;6.47;;;5.63;;
72676;SDS011;60755;51.374;10.662;2023-04-15T06:51:54;5.47;;;4.97;;
72676;SDS011;60755;51.374;10.662;2023-04-15T06:54:21;5.80;;;5.00;;
72676;SDS011;60755;51.374;10.662;2023-04-15T06:56:48;6.73;;;4.70;;
72676;SDS011;60755;51.374;10.662;2023-04-15T06:59:16;6.20;;;4.60;;
72676;SDS011;60755;51.374;10.662;2023-04-15T07:01:43;5.13;;;4.40;;
72676;SDS011;60755;51.374;10.662;2023-04-15T07:04:11;6.20;;;4.77;;
72676;SDS011;60755;51.374;10.662;2023-04-15T07:06:38;5.30;;;4.60;;
72676;SDS011;60755;51.374;10.662;2023-04-15T07:09:07;5.93;;;5.33;;
72676;SDS011;60755;51.374;10.662;2023-04-15T07:11:35;6.60;;;5.53;;
72676;SDS011;60755;51.374;10.662;2023-04-15T07:14:02;5.73;;;4.83;;
72676;SDS011;60755;51.374;10.662;2023-04-15T07:16:29;5.53;;;4.90;;
72676;SDS011;60755;51.374;10.662;2023-04-15T07:18:56;5.33;;;4.77;;
72676;SDS011;60755;51.374;10.662;2023-04-15T07:21:24;5.50;;;4.97;;
72676;SDS011;60755;51.374;10.662;2023-04-15T07:23:52;5.80;;;4.83;;
72676;SDS011;60755;51.374;10.662;2023-04-15T07:26:20;4.60;;;4.20;;
72676;SDS011;60755;51.374;10.662;2023-04-15T07:28:48;7.97;;;6.27;;
72676;SDS011;60755;51.374;10.662;2023-04-15T07:31:15;6.40;;;5.43;;
72676;SDS011;60755;51.374;10.662;2023-04-15T07:33:42;5.07;;;4.57;;
72676;SDS011;60755;51.374;10.662;2023-04-15T07:36:09;7.60;;;5.07;;
72676;SDS011;60755;51.374;10.662;2023-04-15T07:38:37;6.43;;;5.47;;
72676;SDS011;60755;51.374;10.662;2023-04-15T07:41:04;7.27;;;5.50;;
72676;SDS011;60755;51.374;10.662;2023-04-15T07:43:33;8.27;;;5.57;;
72676;SDS011;60755;51.374;10.662;2023-04-15T07:46:00;5.60;;;5.10;;
72676;SDS011;60755;51.374;10.662;2023-04-15T07:48:27;7.70;;;6.30;;
72676;SDS011;60755;51.374;10.662;2023-04-15T07:50:54;6.47;;;5.40;;
72676;SDS011;60755;51.374;10.662;2023-04-15T07:53:21;6.03;;;5.33;;
72676;SDS011;60755;51.374;10.662;2023-04-15T07:55:49;6.47;;;5.83;;
72676;SDS011;60755;51.374;10.662;2023-04-15T07:58:16;7.23;;;5.77;;
72676;SDS011;60755;51.374;10.662;2023-04-15T08:00:44;7.63;;;6.40;;
72676;SDS011;60755;51.374;10.662;2023-04-15T08:03:12;7.50;;;5.90;;
72676;SDS011;60755;51.374;10.662;2023-04-15T08:05:40;7.83;;;6.33;;
72676;SDS011;60755;51.374;10.662;2023-04-15T08:08:07;7.73;;;6.23;;
72676;SDS011;60755;51.374;10.662;2023-04-15T08:10:34;9.10;;;7.40;;
72676;SDS011;60755;51.374;10.662;2023-04-15T08:13:01;7.80;;;6.80;;
72676;SDS011;60755;51.374;10.662;2023-04-15T08:15:29;8.03;;;5.97;;
72676;SDS011;60755;51.374;10.662;2023-04-15T08:17:59;8.43;;;6.57;;
72676;SDS011;60755;51.374;10.662;2023-04-15T08:20:26;8.93;;;6.37;;
72676;SDS011;60755;51.374;10.662;2023-04-15T08:22:53;8.03;;;6.33;;
72676;SDS011;60755;51.374;10.662;2023-04-15T08:25:21;9.40;;;7.07;;
72676;SDS011;60755;51.374;10.662;2023-04-15T08:27:48;9.10;;;6.90;;
72676;SDS011;60755;51.374;10.662;2023-04-15T08:30:15;11.87;;;8.47;;
72676;SDS011;60755;51.374;10.662;2023-04-15T08:32:44;8.00;;;6.83;;
72676;SDS011;60755;51.374;10.662;2023-04-15T08:35:13;9.47;;;7.03;;
72676;SDS011;60755;51.374;10.662;2023-04-15T08:37:41;8.90;;;7.17;;
72676;SDS011;60755;51.374;10.662;2023-04-15T08:40:09;9.27;;;6.97;;
72676;SDS011;60755;51.374;10.662;2023-04-15T08:42:42;8.53;;;7.60;;
72676;SDS011;60755;51.374;10.662;2023-04-15T08:45:12;8.70;;;7.40;;
72676;SDS011;60755;51.374;10.662;2023-04-15T08:47:39;10.77;;;8.53;;
72676;SDS011;60755;51.374;10.662;2023-04-15T08:50:09;10.23;;;8.83;;
72676;SDS011;60755;51.374;10.662;2023-04-15T08:52:38;8.60;;;6.80;;
72676;SDS011;60755;51.374;10.662;2023-04-15T08:55:06;8.43;;;7.30;;
72676;SDS011;60755;51.374;10.662;2023-04-15T08:57:35;8.17;;;6.83;;
72676;SDS011;60755;51.374;10.662;2023-04-15T09:00:04;7.50;;;6.50;;
72676;SDS011;60755;51.374;10.662;2023-04-15T09:02:34;9.93;;;7.43;;
72676;SDS011;60755;51.374;10.662;2023-04-15T09:05:01;10.97;;;8.40;;
72676;SDS011;60755;51.374;10.662;2023-04-15T09:07:32;7.57;;;6.50;;
72676;SDS011;60755;51.374;10.662;2023-04-15T09:10:01;6.07;;;5.57;;
72676;SDS011;60755;51.374;10.662;2023-04-15T09:12:30;6.03;;;5.43;;
72676;SDS011;60755;51.374;10.662;2023-04-15T09:14:59;5.53;;;5.03;;
72676;SDS011;60755;51.374;10.662;2023-04-15T09:17:27;6.47;;;5.87;;
72676;SDS011;60755;51.374;10.662;2023-04-15T09:20:06;5.93;;;5.43;;
72676;SDS011;60755;51.374;10.662;2023-04-15T09:22:35;5.63;;;5.13;;
72676;SDS011;60755;51.374;10.662;2023-04-15T09:25:04;7.03;;;5.80;;
72676;SDS011;60755;51.374;10.662;2023-04-15T09:27:52;5.80;;;5.23;;
72676;SDS011;60755;51.374;10.662;2023-04-15T09:30:21;5.67;;;5.17;;
72676;SDS011;60755;51.374;10.662;2023-04-15T09:32:48;6.50;;;5.67;;
72676;SDS011;60755;51.374;10.662;2023-04-15T09:35:16;7.97;;;6.27;;
72676;SDS011;60755;51.374;10.662;2023-04-15T09:37:44;7.40;;;6.27;;
72676;SDS011;60755;51.374;10.662;2023-04-15T09:40:13;5.70;;;5.13;;
72676;SDS011;60755;51.374;10.662;2023-04-15T09:42:53;6.30;;;5.70;;
72676;SDS011;60755;51.374;10.662;2023-04-15T09:45:21;7.73;;;6.33;;
72676;SDS011;60755;51.374;10.662;2023-04-15T09:47:49;6.17;;;5.57;;
72676;SDS011;60755;51.374;10.662;2023-04-15T09:50:17;6.40;;;5.80;;
72676;SDS011;60755;51.374;10.662;2023-04-15T09:52:45;5.93;;;5.33;;
72676;SDS011;60755;51.374;10.662;2023-04-15T09:55:16;6.43;;;4.93;;
72676;SDS011;60755;51.374;10.662;2023-04-15T09:57:44;6.07;;;5.47;;
72676;SDS011;60755;51.374;10.662;2023-04-15T10:00:13;6.00;;;5.47;;
72676;SDS011;60755;51.374;10.662;2023-04-15T10:02:40;5.17;;;4.70;;
72676;SDS011;60755;51.374;10.662;2023-04-15T10:05:09;5.50;;;5.00;;
72676;SDS011;60755;51.374;10.662;2023-04-15T10:07:38;5.07;;;4.67;;
72676;SDS011;60755;51.374;10.662;2023-04-15T10:10:07;5.10;;;4.70;;
72676;SDS011;60755;51.374;10.662;2023-04-15T10:12:37;5.50;;;5.00;;
72676;SDS011;60755;51.374;10.662;2023-04-15T10:15:06;6.13;;;5.47;;
72676;SDS011;60755;51.374;10.662;2023-04-15T10:17:41;5.90;;;5.40;;
72676;SDS011;60755;51.374;10.662;2023-04-15T10:20:10;5.53;;;4.97;;
72676;SDS011;60755;51.374;10.662;2023-04-15T10:22:39;5.43;;;4.93;;
72676;SDS011;60755;51.374;10.662;2023-04-15T10:25:09;5.33;;;4.83;;
72676;SDS011;60755;51.374;10.662;2023-04-15T10:27:39;7.10;;;6.40;;
72676;SDS011;60755;51.374;10.662;2023-04-15T10:30:08;5.30;;;4.80;;
72676;SDS011;60755;51.374;10.662;2023-04-15T10:32:36;6.47;;;5.83;;
72676;SDS011;60755;51.374;10.662;2023-04-15T10:35:04;6.73;;;5.73;;
72676;SDS011;60755;51.374;10.662;2023-04-15T10:37:33;6.10;;;5.57;;
72676;SDS011;60755;51.374;10.662;2023-04-15T10:42:54;6.43;;;5.83;;
72676;SDS011;60755;51.374;10.662;2023-04-15T10:45:24;5.70;;;5.20;;
72676;SDS011;60755;51.374;10.662;2023-04-15T10:47:56;6.40;;;5.83;;
72676;SDS011;60755;51.374;10.662;2023-04-15T10:50:27;6.80;;;6.10;;
72676;SDS011;60755;51.374;10.662;2023-04-15T10:52:57;6.47;;;5.87;;
72676;SDS011;60755;51.374;10.662;2023-04-15T10:55:25;6.27;;;5.67;;
72676;SDS011;60755;51.374;10.662;2023-04-15T10:57:58;7.60;;;6.00;;
72676;SDS011;60755;51.374;10.662;2023-04-15T11:00:27;6.97;;;5.70;;
72676;SDS011;60755;51.374;10.662;2023-04-15T11:02:56;6.87;;;6.07;;
72676;SDS011;60755;51.374;10.662;2023-04-15T11:08:16;5.50;;;5.00;;
72676;SDS011;60755;51.374;10.662;2023-04-15T11:10:53;6.40;;;5.80;;
72676;SDS011;60755;51.374;10.662;2023-04-15T11:13:24;7.70;;;6.90;;
72676;SDS011;60755;51.374;10.662;2023-04-15T11:15:54;6.80;;;6.07;;
72676;SDS011;60755;51.374;10.662;2023-04-15T11:18:26;6.90;;;6.20;;
72676;SDS011;60755;51.374;10.662;2023-04-15T11:20:59;7.13;;;6.43;;
72676;SDS011;60755;51.374;10.662;2023-04-15T11:23:29;7.90;;;7.10;;
72676;SDS011;60755;51.374;10.662;2023-04-15T11:25:58;9.00;;;6.80;;
72676;SDS011;60755;51.374;10.662;2023-04-15T11:28:29;7.87;;;7.07;;
72676;SDS011;60755;51.374;10.662;2023-04-15T11:30:57;8.30;;;7.40;;
72676;SDS011;60755;51.374;10.662;2023-04-15T11:33:31;7.70;;;6.90;;
72676;SDS011;60755;51.374;10.662;2023-04-15T11:35:58;7.00;;;6.30;;
72676;SDS011;60755;51.374;10.662;2023-04-15T11:38:25;8.00;;;7.20;;
72676;SDS011;60755;51.374;10.662;2023-04-15T11:40:53;9.20;;;8.20;;
72676;SDS011;60755;51.374;10.662;2023-04-15T11:43:21;21.57;;;13.63;;
72676;SDS011;60755;51.374;10.662;2023-04-15T11:45:51;13.37;;;9.93;;
72676;SDS011;60755;51.374;10.662;2023-04-15T11:48:21;10.33;;;8.93;;
72676;SDS011;60755;51.374;10.662;2023-04-15T11:50:54;12.77;;;9.83;;
72676;SDS011;60755;51.374;10.662;2023-04-15T11:53:22;20.33;;;14.87;;
72676;SDS011;60755;51.374;10.662;2023-04-15T11:55:50;9.80;;;8.53;;
72676;SDS011;60755;51.374;10.662;2023-04-15T11:58:21;7.20;;;6.50;;
72676;SDS011;60755;51.374;10.662;2023-04-15T12:00:51;7.10;;;6.40;;
72676;SDS011;60755;51.374;10.662;2023-04-15T12:03:20;8.23;;;7.37;;
72676;SDS011;60755;51.374;10.662;2023-04-15T12:06:01;7.40;;;6.30;;
72676;SDS011;60755;51.374;10.662;2023-04-15T12:08:49;7.67;;;6.47;;
72676;SDS011;60755;51.374;10.662;2023-04-15T12:11:18;7.23;;;6.47;;
72676;SDS011;60755;51.374;10.662;2023-04-15T12:13:46;8.80;;;7.30;;
72676;SDS011;60755;51.374;10.662;2023-04-15T12:16:17;9.30;;;7.23;;
72676;SDS011;60755;51.374;10.662;2023-04-15T12:18:45;9.37;;;6.93;;
72676;SDS011;60755;51.374;10.662;2023-04-15T12:21:13;9.83;;;8.20;;
72676;SDS011;60755;51.374;10.662;2023-04-15T12:23:46;10.77;;;8.10;;
72676;SDS011;60755;51.374;10.662;2023-04-15T12:26:14;10.53;;;8.03;;
72676;SDS011;60755;51.374;10.662;2023-04-15T12:28:42;12.40;;;9.43;;
72676;SDS011;60755;51.374;10.662;2023-04-15T12:31:10;12.67;;;9.33;;
72676;SDS011;60755;51.374;10.662;2023-04-15T12:33:39;12.80;;;8.57;;
72676;SDS011;60755;51.374;10.662;2023-04-15T12:36:06;13.30;;;10.13;;
72676;SDS011;60755;51.374;10.662;2023-04-15T12:38:34;18.20;;;12.40;;
72676;SDS011;60755;51.374;10.662;2023-04-15T12:41:01;18.43;;;12.57;;
72676;SDS011;60755;51.374;10.662;2023-04-15T12:43:28;19.63;;;12.83;;
72676;SDS011;60755;51.374;10.662;2023-04-15T12:45:55;11.07;;;8.60;;
72676;SDS011;60755;51.374;10.662;2023-04-15T12:48:22;23.10;;;14.53;;
72676;SDS011;60755;51.374;10.662;2023-04-15T12:50:51;17.07;;;12.07;;
72676;SDS011;60755;51.374;10.662;2023-04-15T12:53:19;21.67;;;14.57;;
72676;SDS011;60755;51.374;10.662;2023-04-15T12:55:46;28.93;;;16.97;;
72676;SDS011;60755;51.374;10.662;2023-04-15T12:58:13;25.60;;;13.60;;
72676;SDS011;60755;51.374;10.662;2023-04-15T13:00:40;49.53;;;21.03;;
72676;SDS011;60755;51.374;10.662;2023-04-15T13:03:08;32.73;;;15.50;;
72676;SDS011;60755;51.374;10.662;2023-04-15T13:05:36;29.47;;;14.57;;
72676;SDS011;60755;51.374;10.662;2023-04-15T13:08:05;31.20;;;16.27;;
72676;SDS011;60755;51.374;10.662;2023-04-15T13:10:34;40.83;;;19.47;;
72676;SDS011;60755;51.374;10.662;2023-04-15T13:13:02;48.10;;;21.60;;
72676;SDS011;60755;51.374;10.662;2023-04-15T13:15:29;48.30;;;23.27;;
72676;SDS011;60755;51.374;10.662;2023-04-15T13:17:57;74.27;;;26.73;;
72676;SDS011;60755;51.374;10.662;2023-04-15T13:20:24;52.17;;;19.70;;
72676;SDS011;60755;51.374;10.662;2023-04-15T13:22:52;57.00;;;22.77;;
72676;SDS011;60755;51.374;10.662;2023-04-15T13:25:21;49.73;;;22.47;;
72676;SDS011;60755;51.374;10.662;2023-04-15T13:27:48;45.27;;;21.27;;
72676;SDS011;60755;51.374;10.662;2023-04-15T13:30:15;50.90;;;25.77;;
72676;SDS011;60755;51.374;10.662;2023-04-15T13:32:42;46.73;;;23.70;;
72676;SDS011;60755;51.374;10.662;2023-04-15T13:35:09;28.47;;;17.13;;
72676;SDS011;60755;51.374;10.662;2023-04-15T13:37:36;21.97;;;13.93;;
72676;SDS011;60755;51.374;10.662;2023-04-15T13:40:04;34.20;;;18.70;;
72676;SDS011;60755;51.374;10.662;2023-04-15T13:42:34;28.50;;;15.10;;
72676;SDS011;60755;51.374;10.662;2023-04-15T13:45:00;25.87;;;14.40;;
72676;SDS011;60755;51.374;10.662;2023-04-15T13:47:27;21.53;;;12.27;;
72676;SDS011;60755;51.374;10.662;2023-04-15T13:49:55;20.43;;;11.90;;
72676;SDS011;60755;51.374;10.662;2023-04-15T13:52:23;19.47;;;11.40;;
72676;SDS011;60755;51.374;10.662;2023-04-15T13:54:50;14.13;;;9.53;;
72676;SDS011;60755;51.374;10.662;2023-04-15T13:57:17;18.13;;;11.00;;
72676;SDS011;60755;51.374;10.662;2023-04-15T13:59:45;14.00;;;9.07;;
72676;SDS011;60755;51.374;10.662;2023-04-15T14:02:12;14.63;;;8.80;;
72676;SDS011;60755;51.374;10.662;2023-04-15T14:04:39;10.50;;;6.93;;
72676;SDS011;60755;51.374;10.662;2023-04-15T14:07:07;39.37;;;16.67;;
72676;SDS011;60755;51.374;10.662;2023-04-15T14:09:34;19.63;;;10.60;;
72676;SDS011;60755;51.374;10.662;2023-04-15T14:12:01;18.43;;;9.20;;
72676;SDS011;60755;51.374;10.662;2023-04-15T14:14:28;30.20;;;14.03;;
72676;SDS011;60755;51.374;10.662;2023-04-15T14:16:57;22.37;;;10.70;;
72676;SDS011;60755;51.374;10.662;2023-04-15T14:19:24;13.67;;;8.50;;
72676;SDS011;60755;51.374;10.662;2023-04-15T14:21:51;19.50;;;11.17;;
72676;SDS011;60755;51.374;10.662;2023-04-15T14:24:18;15.40;;;9.27;;
72676;SDS011;60755;51.374;10.662;2023-04-15T14:26:45;15.77;;;9.30;;
72676;SDS011;60755;51.374;10.662;2023-04-15T14:29:12;15.93;;;10.00;;
72676;SDS011;60755;51.374;10.662;2023-04-15T14:31:39;15.97;;;9.57;;
72676;SDS011;60755;51.374;10.662;2023-04-15T14:34:07;16.30;;;9.73;;
72676;SDS011;60755;51.374;10.662;2023-04-15T14:36:34;17.13;;;9.60;;